< < Back
Terminal Aerodrome Forecast


Current Version              Previous Versions:   1  2  3  4  5  6  7  8  9  

Terminal Aerodrome Forecast

886
FTUS42 KGSP 181133
TAFAND
TAF
KAND 181133Z 1812/1912 06003KT P6SM FEW180 SCT250
     FM181700 09004KT P6SM SCT080 BKN250
     FM181900 15004KT P6SM SCT250
     FM190000 25003KT P6SM FEW250
     FM190300 00000KT P6SM SKC=



Latest METAR

333
SAUS70 KWBC 181700 RRE
MTRAND
METAR KAND 181656Z AUTO 11004KT 10SM SCT080 12/M04 A3015 RMK AO2 SLP208
T01171039


USA.gov is the U.S. government's official web portal to all federal, state and local government web resources and services.